createdAt,value
2017-08-25T00:01:09.040Z,75.00
2017-08-25T00:03:37.329Z,75.00
2017-08-25T00:06:05.600Z,75.50
2017-08-25T00:08:34.016Z,76.00
2017-08-25T00:11:02.280Z,76.20
2017-08-25T00:13:30.555Z,76.70
2017-08-25T00:15:59.600Z,77.50
2017-08-25T00:18:27.864Z,76.80
2017-08-25T00:20:56.249Z,76.90
2017-08-25T00:23:24.515Z,77.30
2017-08-25T00:25:52.792Z,77.50
2017-08-25T00:28:21.861Z,77.90
2017-08-25T00:30:50.136Z,77.90
2017-08-25T00:33:18.451Z,77.00
2017-08-25T00:35:47.132Z,76.00
2017-08-25T00:38:15.401Z,75.20
2017-08-25T00:40:43.679Z,74.80
2017-08-25T00:43:11.952Z,74.80
2017-08-25T00:45:40.402Z,73.70
2017-08-25T00:48:09.433Z,74.00
2017-08-25T00:50:37.700Z,73.90
2017-08-25T00:53:06.006Z,74.90
2017-08-25T00:55:34.319Z,75.80
2017-08-25T00:58:02.612Z,76.70
2017-08-25T01:00:30.884Z,76.10
2017-08-25T01:02:59.153Z,75.70
2017-08-25T01:05:27.443Z,75.10
2017-08-25T01:07:55.717Z,76.00
2017-08-25T01:10:24.200Z,74.70
2017-08-25T01:12:52.463Z,73.80
2017-08-25T01:15:20.744Z,73.30
2017-08-25T01:17:49.034Z,73.30
2017-08-25T01:20:18.075Z,74.30
2017-08-25T01:22:46.380Z,74.20
2017-08-25T01:25:14.668Z,74.70
2017-08-25T01:27:42.940Z,75.20
2017-08-25T01:30:11.228Z,76.20
2017-08-25T01:32:39.495Z,75.80
2017-08-25T01:35:08.180Z,74.90
2017-08-25T01:37:37.227Z,75.70
2017-08-25T01:40:05.480Z,76.20
2017-08-25T01:42:33.784Z,74.80
2017-08-25T01:45:02.820Z,75.80
2017-08-25T01:47:31.136Z,75.70
2017-08-25T01:49:59.403Z,76.40
2017-08-25T01:52:27.676Z,76.70
2017-08-25T01:54:56.101Z,76.30
2017-08-25T01:57:24.372Z,76.90
2017-08-25T01:59:52.683Z,77.50
2017-08-25T02:02:20.947Z,78.00
2017-08-25T02:04:49.508Z,78.30
2017-08-25T02:07:17.789Z,78.80
2017-08-25T02:09:46.060Z,78.70
2017-08-25T02:12:14.372Z,78.70
2017-08-25T02:14:42.644Z,78.70
2017-08-25T02:17:10.919Z,78.80
2017-08-25T02:19:39.204Z,79.10
2017-08-25T02:22:07.471Z,78.70
2017-08-25T02:24:35.768Z,79.60
2017-08-25T02:27:04.832Z,78.70
2017-08-25T02:29:34.012Z,78.90
2017-08-25T02:32:03.039Z,78.90
2017-08-25T02:34:31.647Z,78.10
2017-08-25T02:36:59.935Z,77.30
2017-08-25T02:39:28.981Z,77.60
2017-08-25T02:41:57.472Z,77.50
2017-08-25T02:44:25.744Z,77.50
2017-08-25T02:46:54.020Z,77.20
2017-08-25T02:49:22.316Z,78.10
2017-08-25T02:51:50.577Z,78.80
2017-08-25T02:54:18.889Z,78.70
2017-08-25T02:56:47.151Z,78.70
2017-08-25T02:59:16.187Z,78.70
2017-08-25T03:01:44.467Z,78.60
2017-08-25T03:04:12.740Z,79.10
2017-08-25T03:06:41.205Z,79.20
2017-08-25T03:09:09.464Z,79.70
2017-08-25T03:11:38.496Z,80.50
2017-08-25T03:14:06.793Z,80.40
2017-08-25T03:16:35.064Z,80.80
2017-08-25T03:19:04.140Z,80.40
2017-08-25T03:21:32.404Z,80.40
2017-08-25T03:24:01.439Z,81.80
2017-08-25T03:26:29.719Z,81.80
2017-08-25T03:28:57.992Z,81.70
2017-08-25T03:31:26.291Z,81.90
2017-08-25T03:33:54.572Z,81.40
2017-08-25T03:36:22.843Z,80.20
2017-08-25T03:38:51.504Z,80.90
2017-08-25T03:41:19.779Z,80.90
2017-08-25T03:43:48.096Z,80.70
2017-08-25T03:46:17.151Z,81.40
2017-08-25T03:48:46.176Z,81.50
2017-08-25T03:51:14.467Z,81.40
2017-08-25T03:53:42.719Z,81.60
2017-08-25T03:56:11.234Z,82.10
2017-08-25T03:58:39.492Z,82.00
2017-08-25T04:01:07.755Z,81.70
2017-08-25T04:03:36.817Z,81.90
2017-08-25T04:06:05.093Z,81.80
2017-08-25T04:08:33.384Z,82.10
2017-08-25T04:11:01.653Z,82.90
2017-08-25T04:13:29.932Z,82.70
2017-08-25T04:15:58.232Z,83.30
2017-08-25T04:18:26.508Z,83.60
2017-08-25T04:20:55.267Z,83.70
2017-08-25T04:23:23.539Z,83.70
2017-08-25T04:25:51.811Z,84.20
2017-08-25T04:28:20.192Z,84.10
2017-08-25T04:30:48.476Z,84.20
2017-08-25T04:33:16.781Z,84.40
2017-08-25T04:35:45.060Z,84.30
2017-08-25T04:38:16.174Z,84.00
2017-08-25T04:40:45.234Z,84.80
2017-08-25T04:43:13.508Z,83.90
2017-08-25T04:45:41.788Z,83.80
2017-08-25T04:48:10.049Z,84.00
2017-08-25T04:50:38.372Z,83.80
2017-08-25T04:53:06.635Z,83.50
2017-08-25T04:55:34.912Z,83.10
2017-08-25T04:58:03.195Z,82.80
2017-08-25T05:00:31.468Z,82.40
2017-08-25T05:02:59.776Z,82.30
2017-08-25T05:05:28.051Z,82.50
2017-08-25T05:07:56.328Z,82.70
2017-08-25T05:10:24.612Z,82.70
2017-08-25T05:12:52.881Z,81.80
2017-08-25T05:15:21.176Z,80.70
2017-08-25T05:17:49.440Z,80.70
2017-08-25T05:20:17.703Z,80.20
2017-08-25T05:22:45.990Z,80.30
2017-08-25T05:25:14.265Z,79.40
2017-08-25T05:27:42.556Z,78.70
2017-08-25T05:30:11.596Z,78.80
2017-08-25T05:32:39.864Z,78.80
2017-08-25T05:35:08.162Z,79.20
2017-08-25T05:37:36.433Z,79.20
2017-08-25T05:40:05.484Z,79.00
2017-08-25T05:42:33.784Z,78.90
2017-08-25T05:45:02.047Z,77.90
2017-08-25T05:47:30.335Z,77.20
2017-08-25T05:49:58.611Z,77.30
2017-08-25T05:52:26.875Z,76.60
2017-08-25T05:54:55.159Z,76.00
2017-08-25T05:57:23.429Z,75.20
2017-08-25T05:59:51.700Z,74.90
2017-08-25T06:02:20.755Z,75.40
2017-08-25T06:04:49.053Z,75.30
2017-08-25T06:07:17.307Z,75.80
2017-08-25T06:09:46.359Z,73.40
2017-08-25T06:12:14.624Z,73.30
2017-08-25T06:14:42.936Z,73.50
2017-08-25T06:17:11.290Z,73.40
2017-08-25T06:19:39.559Z,73.80
2017-08-25T06:22:07.832Z,72.70
2017-08-25T06:24:36.116Z,73.20
2017-08-25T06:27:04.409Z,73.60
2017-08-25T06:29:33.463Z,73.50
2017-08-25T06:32:01.727Z,73.40
2017-08-25T06:34:30.015Z,73.70
2017-08-25T06:36:58.394Z,71.60
2017-08-25T06:39:26.680Z,71.80
2017-08-25T06:41:54.948Z,71.20
2017-08-25T06:44:23.264Z,71.80
2017-08-25T06:46:51.540Z,71.20
2017-08-25T06:49:19.808Z,71.60
2017-08-25T06:51:48.096Z,71.40
2017-08-25T06:54:16.372Z,71.50
2017-08-25T06:56:44.656Z,70.80
2017-08-25T06:59:12.920Z,71.30
2017-08-25T07:01:41.973Z,71.00
2017-08-25T07:04:10.246Z,71.00
2017-08-25T07:06:38.543Z,69.20
2017-08-25T07:09:06.816Z,70.30
2017-08-25T07:11:35.087Z,69.30
2017-08-25T07:14:03.372Z,69.80
2017-08-25T07:16:31.644Z,69.70
2017-08-25T07:18:59.929Z,68.00
2017-08-25T07:21:29.465Z,66.70
2017-08-25T07:23:57.755Z,66.60
2017-08-25T07:26:26.032Z,67.40
2017-08-25T07:28:54.344Z,66.40
2017-08-25T07:31:22.613Z,65.60
2017-08-25T07:33:50.893Z,64.80
2017-08-25T07:36:19.180Z,64.60
2017-08-25T07:38:47.449Z,65.20
2017-08-25T07:41:15.789Z,67.20
2017-08-25T07:43:44.816Z,63.70
2017-08-25T07:46:13.093Z,63.60
2017-08-25T07:48:41.379Z,63.70
2017-08-25T07:51:09.649Z,64.30
2017-08-25T07:53:37.936Z,63.80
2017-08-25T07:56:06.198Z,64.00
2017-08-25T07:58:35.236Z,63.40
2017-08-25T08:01:03.532Z,63.40
2017-08-25T08:03:31.811Z,64.30
2017-08-25T08:06:00.388Z,64.30
2017-08-25T08:08:28.651Z,63.80
2017-08-25T08:10:56.960Z,63.70
2017-08-25T08:13:25.227Z,61.50
2017-08-25T08:15:53.496Z,62.10
2017-08-25T08:18:21.784Z,60.40
2017-08-25T08:20:50.056Z,59.50
2017-08-25T08:23:18.427Z,59.00
2017-08-25T08:25:46.703Z,58.90
2017-08-25T08:28:14.984Z,59.20
2017-08-25T08:30:43.290Z,59.30
2017-08-25T08:33:12.326Z,57.30
2017-08-25T08:35:40.628Z,57.30
2017-08-25T08:38:08.903Z,57.70
2017-08-25T08:40:37.179Z,57.70
2017-08-25T08:43:05.467Z,57.90
2017-08-25T08:45:33.744Z,56.40
2017-08-25T08:48:02.243Z,56.50
2017-08-25T08:50:30.507Z,56.60
2017-08-25T08:52:58.812Z,56.10
2017-08-25T08:55:27.088Z,55.10
2017-08-25T08:57:55.379Z,54.80
2017-08-25T09:00:23.665Z,55.30
2017-08-25T09:02:51.948Z,55.10
2017-08-25T09:05:26.084Z,55.30
2017-08-25T09:07:54.380Z,54.30
2017-08-25T09:10:22.667Z,53.70
2017-08-25T09:12:50.931Z,54.10
2017-08-25T09:15:19.231Z,52.90
2017-08-25T09:17:47.509Z,52.80
2017-08-25T09:20:16.559Z,53.40
2017-08-25T09:22:44.840Z,53.50
2017-08-25T09:25:13.155Z,52.90
2017-08-25T09:27:41.432Z,52.50
2017-08-25T09:30:09.712Z,51.10
2017-08-25T09:32:38.007Z,52.10
2017-08-25T09:35:06.300Z,53.30
2017-08-25T09:37:34.608Z,52.60
2017-08-25T09:40:03.092Z,52.60
2017-08-25T09:42:32.176Z,50.70
2017-08-25T09:45:00.448Z,50.70
2017-08-25T09:47:28.721Z,49.20
2017-08-25T09:49:57.008Z,49.20
2017-08-25T09:52:25.276Z,49.40
2017-08-25T09:54:53.557Z,50.50
2017-08-25T09:57:21.827Z,49.70
2017-08-25T09:59:50.156Z,47.90
2017-08-25T10:02:18.426Z,48.30
2017-08-25T10:04:46.686Z,47.20
2017-08-25T10:07:14.980Z,47.60
2017-08-25T10:09:43.255Z,47.10
2017-08-25T10:12:12.304Z,48.50
2017-08-25T10:14:40.576Z,48.50
2017-08-25T10:17:09.623Z,47.90
2017-08-25T10:19:37.895Z,47.90
2017-08-25T10:22:06.465Z,47.30
2017-08-25T10:24:34.727Z,48.30
2017-08-25T10:27:03.008Z,46.80
2017-08-25T10:29:32.060Z,44.40
2017-08-25T10:32:00.328Z,43.90
2017-08-25T10:34:40.555Z,43.30
2017-08-25T10:37:20.773Z,44.00
2017-08-25T10:40:01.133Z,46.60
2017-08-25T10:42:41.282Z,44.20
2017-08-25T10:45:11.409Z,43.30
2017-08-25T10:47:39.677Z,45.40
2017-08-25T10:50:07.948Z,44.30
2017-08-25T10:52:37.007Z,44.30
2017-08-25T10:55:05.283Z,44.10
2017-08-25T10:57:33.571Z,42.70
2017-08-25T11:00:01.848Z,41.10
2017-08-25T11:02:30.134Z,40.00
2017-08-25T11:04:58.404Z,41.80
2017-08-25T11:07:26.679Z,40.80
2017-08-25T11:09:55.711Z,43.20
2017-08-25T11:12:24.020Z,43.10
2017-08-25T11:14:52.289Z,42.00
2017-08-25T11:17:20.563Z,40.10
2017-08-25T11:19:48.876Z,40.70
2017-08-25T11:22:17.140Z,41.50
2017-08-25T11:24:45.420Z,41.30
2017-08-25T11:29:48.975Z,41.40
2017-08-25T11:32:17.259Z,41.40
2017-08-25T11:34:45.524Z,40.00
2017-08-25T11:37:13.855Z,40.30
2017-08-25T11:39:42.119Z,38.70
2017-08-25T11:42:10.381Z,39.80
2017-08-25T11:44:38.668Z,41.30
2017-08-25T11:47:06.933Z,40.30
2017-08-25T11:49:35.247Z,39.80
2017-08-25T11:52:03.519Z,40.00
2017-08-25T11:54:31.795Z,40.50
2017-08-25T11:57:00.080Z,41.20
2017-08-25T11:59:28.351Z,39.80
2017-08-25T12:01:56.631Z,38.40
2017-08-25T12:04:25.659Z,40.10
2017-08-25T12:06:53.971Z,40.10
2017-08-25T12:09:23.000Z,42.00
2017-08-25T12:11:51.263Z,42.00
2017-08-25T12:14:19.562Z,39.20
2017-08-25T12:16:48.600Z,38.10
2017-08-25T12:19:16.919Z,38.20
2017-08-25T12:21:45.197Z,35.70
2017-08-25T12:24:13.472Z,36.10
2017-08-25T12:26:41.747Z,38.60
2017-08-25T12:29:10.023Z,37.40
2017-08-25T12:31:38.344Z,36.80
2017-08-25T12:34:06.607Z,37.00
2017-08-25T12:36:34.896Z,39.00
2017-08-25T12:39:03.183Z,37.30
2017-08-25T12:41:31.458Z,39.70
2017-08-25T12:44:00.531Z,35.70
2017-08-25T12:46:29.568Z,36.50
2017-08-25T12:48:57.883Z,35.70
2017-08-25T12:51:26.176Z,36.40
2017-08-25T12:53:54.448Z,37.80
2017-08-25T12:56:22.756Z,36.50
2017-08-25T12:58:51.033Z,36.50
2017-08-25T13:01:19.309Z,36.70
2017-08-25T13:03:47.592Z,34.80
2017-08-25T13:06:15.872Z,36.20
2017-08-25T13:08:44.207Z,34.30
2017-08-25T13:11:12.484Z,36.50
2017-08-25T13:13:40.752Z,35.10
2017-08-25T13:16:09.036Z,34.40
2017-08-25T13:18:37.307Z,34.30
2017-08-25T13:21:06.379Z,34.70
2017-08-25T13:23:34.659Z,34.70
2017-08-25T13:26:03.707Z,33.10
2017-08-25T13:28:31.996Z,33.20
2017-08-25T13:31:00.262Z,32.50
2017-08-25T13:33:28.720Z,34.60
2017-08-25T13:35:56.976Z,34.80
2017-08-25T13:38:25.244Z,35.40
2017-08-25T13:40:54.296Z,31.80
2017-08-25T13:43:22.561Z,31.80
2017-08-25T13:45:50.879Z,31.40
2017-08-25T13:48:19.156Z,31.90
2017-08-25T13:50:47.432Z,32.00
2017-08-25T13:53:15.828Z,32.00
2017-08-25T13:55:44.088Z,32.90
2017-08-25T13:58:13.464Z,31.10
2017-08-25T14:00:41.739Z,31.00
2017-08-25T14:03:10.776Z,32.40
2017-08-25T14:05:39.059Z,32.50
2017-08-25T14:08:07.336Z,31.70
2017-08-25T14:10:35.645Z,32.50
2017-08-25T14:13:03.920Z,29.90
2017-08-25T14:15:32.180Z,30.80
2017-08-25T14:18:00.474Z,30.30
2017-08-25T14:20:28.746Z,31.00
2017-08-25T14:22:57.200Z,31.00
2017-08-25T14:25:25.475Z,30.60
2017-08-25T14:27:53.751Z,33.60
2017-08-25T14:30:22.032Z,34.40
2017-08-25T14:32:50.303Z,30.00
2017-08-25T14:35:18.588Z,30.00
2017-08-25T14:37:46.871Z,32.20
2017-08-25T14:40:15.166Z,30.70
2017-08-25T14:42:43.448Z,31.60
2017-08-25T14:45:11.716Z,31.50
2017-08-25T14:47:39.975Z,35.00
2017-08-25T14:50:08.255Z,31.40
2017-08-25T14:52:36.542Z,33.30
2017-08-25T14:55:04.816Z,35.30
2017-08-25T14:57:33.860Z,32.70
2017-08-25T15:00:02.132Z,32.50
2017-08-25T15:02:30.407Z,30.70
2017-08-25T15:04:58.738Z,30.00
2017-08-25T15:07:26.992Z,33.30
2017-08-25T15:09:55.259Z,31.70
2017-08-25T15:12:23.550Z,31.70
2017-08-25T15:14:51.817Z,32.00
2017-08-25T15:17:20.132Z,33.60
2017-08-25T15:19:48.407Z,32.80
2017-08-25T15:22:16.676Z,33.70
2017-08-25T15:24:44.964Z,32.90
2017-08-25T15:27:13.992Z,33.00
2017-08-25T15:29:42.601Z,32.90
2017-08-25T15:32:10.872Z,32.70
2017-08-25T15:34:39.908Z,33.20
2017-08-25T15:37:08.188Z,33.20
2017-08-25T15:39:36.459Z,32.10
2017-08-25T15:42:04.767Z,31.60
2017-08-25T15:44:33.049Z,32.70
2017-08-25T15:47:01.319Z,31.80
2017-08-25T15:49:29.624Z,32.10
2017-08-25T15:51:57.900Z,33.00
2017-08-25T15:54:26.221Z,33.70
2017-08-25T15:56:54.489Z,34.30
2017-08-25T15:59:22.762Z,34.30
2017-08-25T16:01:51.043Z,34.20
2017-08-25T16:04:19.320Z,34.70
2017-08-25T16:06:47.645Z,34.90
2017-08-25T16:09:15.913Z,36.20
2017-08-25T16:11:44.184Z,35.60
2017-08-25T16:14:12.467Z,35.30
2017-08-25T16:16:40.740Z,36.70
2017-08-25T16:22:08.012Z,36.40
2017-08-25T16:24:36.325Z,36.60
2017-08-25T16:27:04.591Z,37.90
2017-08-25T16:29:33.112Z,37.20
2017-08-25T16:32:01.393Z,37.40
2017-08-25T16:34:29.701Z,37.00
2017-08-25T16:36:57.993Z,38.10
2017-08-25T16:39:26.256Z,37.60
2017-08-25T16:41:54.524Z,38.10
2017-08-25T16:44:22.891Z,38.40
2017-08-25T16:46:51.156Z,38.50
2017-08-25T16:49:19.459Z,39.00
2017-08-25T16:51:47.786Z,39.30
2017-08-25T16:54:16.804Z,40.00
2017-08-25T16:56:45.119Z,39.90
2017-08-25T16:59:14.154Z,42.30
2017-08-25T17:01:42.486Z,42.30
2017-08-25T17:04:10.769Z,42.80
2017-08-25T17:06:39.052Z,43.20
2017-08-25T17:09:07.341Z,43.20
2017-08-25T17:11:35.636Z,43.80
2017-08-25T17:14:03.956Z,43.80
2017-08-25T17:16:32.906Z,44.20
2017-08-25T17:19:01.396Z,44.40
2017-08-25T17:21:29.664Z,42.60
2017-08-25T17:23:57.946Z,42.40
2017-08-25T17:26:27.750Z,42.60
2017-08-25T17:28:56.009Z,42.50
2017-08-25T17:31:24.319Z,42.80
2017-08-25T17:33:52.587Z,43.10
2017-08-25T17:36:21.104Z,43.80
2017-08-25T17:38:49.396Z,44.20
2017-08-25T17:41:17.932Z,44.80
2017-08-25T17:43:46.243Z,45.20
2017-08-25T17:46:14.511Z,46.10
2017-08-25T17:48:42.825Z,46.50
2017-08-25T17:51:11.103Z,46.90
2017-08-25T17:53:39.367Z,47.20
2017-08-25T17:56:07.692Z,47.40
2017-08-25T17:58:35.977Z,47.80
2017-08-25T18:01:04.262Z,49.10
2017-08-25T18:03:34.588Z,48.70
2017-08-25T18:06:02.959Z,49.10
2017-08-25T18:08:31.252Z,50.00
2017-08-25T18:10:59.559Z,50.00
2017-08-25T18:13:27.809Z,49.90
2017-08-25T18:15:56.112Z,49.80
2017-08-25T18:18:24.380Z,50.30
2017-08-25T18:20:53.456Z,51.00
2017-08-25T18:23:21.804Z,50.90
2017-08-25T18:25:50.176Z,51.00
2017-08-25T18:28:18.464Z,51.30
2017-08-25T18:30:46.727Z,51.80
2017-08-25T18:33:15.035Z,52.00
2017-08-25T18:35:43.311Z,52.90
2017-08-25T18:38:11.591Z,52.80
2017-08-25T18:40:39.896Z,53.00
2017-08-25T18:43:08.167Z,53.20
2017-08-25T18:45:36.476Z,53.10
2017-08-25T18:48:04.760Z,54.60
2017-08-25T18:50:33.076Z,54.60
2017-08-25T18:53:01.351Z,55.00
2017-08-25T18:55:29.681Z,55.20
2017-08-25T18:57:58.384Z,54.90
2017-08-25T19:00:26.706Z,54.60
2017-08-25T19:02:54.967Z,54.60
2017-08-25T19:05:23.264Z,55.40
2017-08-25T19:07:52.312Z,56.40
2017-08-25T19:10:20.771Z,56.30
2017-08-25T19:12:49.088Z,56.10
2017-08-25T19:15:17.641Z,56.90
2017-08-25T19:17:45.951Z,56.70
2017-08-25T19:20:14.226Z,57.70
2017-08-25T19:22:42.561Z,57.70
2017-08-25T19:25:10.873Z,56.60
2017-08-25T19:27:39.337Z,56.40
2017-08-25T19:30:07.647Z,56.40
2017-08-25T19:35:11.412Z,58.20
2017-08-25T19:37:40.457Z,58.30
2017-08-25T19:40:08.732Z,58.10
2017-08-25T19:42:37.036Z,57.50
2017-08-25T19:45:05.367Z,57.50
2017-08-25T19:47:33.688Z,57.50
2017-08-25T19:50:01.964Z,57.60
2017-08-25T19:52:30.524Z,60.00
2017-08-25T19:54:58.854Z,59.10
2017-08-25T19:57:27.115Z,59.70
2017-08-25T19:59:55.447Z,60.10
2017-08-25T20:02:23.768Z,59.10
2017-08-25T20:04:52.036Z,58.60
2017-08-25T20:07:20.332Z,59.00
2017-08-25T20:09:48.619Z,58.50
2017-08-25T20:12:17.136Z,57.10
2017-08-25T20:14:45.403Z,57.00
2017-08-25T20:17:13.937Z,54.00
2017-08-25T20:19:42.245Z,52.40
2017-08-25T20:22:10.525Z,52.70
2017-08-25T20:24:38.892Z,54.50
2017-08-25T20:27:07.920Z,59.80
2017-08-25T20:29:36.195Z,59.90
2017-08-25T20:32:04.496Z,64.00
2017-08-25T20:34:32.786Z,67.30
2017-08-25T20:37:01.124Z,70.20
2017-08-25T20:39:29.404Z,76.30
2017-08-25T20:41:57.723Z,76.90
2017-08-25T20:44:26.012Z,77.90
2017-08-25T20:46:54.284Z,79.30
2017-08-25T20:49:22.579Z,80.90
2017-08-25T20:51:50.852Z,82.00
2017-08-25T20:54:19.120Z,82.20
2017-08-25T20:56:47.407Z,81.70
2017-08-25T20:59:16.438Z,81.70
2017-08-25T21:01:44.764Z,81.60
2017-08-25T21:04:13.039Z,82.90
2017-08-25T21:06:41.313Z,83.50
2017-08-25T21:09:09.629Z,83.50
2017-08-25T21:11:37.935Z,84.40
2017-08-25T21:14:06.384Z,84.70
2017-08-25T21:16:35.571Z,83.40
2017-08-25T21:19:03.832Z,84.50
2017-08-25T21:21:32.123Z,83.80
2017-08-25T21:24:00.432Z,83.50
2017-08-25T21:26:29.780Z,83.00
2017-08-25T21:28:58.064Z,83.00
2017-08-25T21:31:26.454Z,82.80
2017-08-25T21:33:54.716Z,82.30
2017-08-25T21:36:23.032Z,83.30
2017-08-25T21:38:51.400Z,83.50
2017-08-25T21:41:19.672Z,85.30
2017-08-25T21:43:47.960Z,85.20
2017-08-25T21:46:16.232Z,84.90
2017-08-25T21:48:44.774Z,86.00
2017-08-25T21:51:13.045Z,87.00
2017-08-25T21:53:41.308Z,86.80
2017-08-25T21:56:10.364Z,87.40
2017-08-25T21:58:38.633Z,87.20
2017-08-25T22:01:06.952Z,87.70
2017-08-25T22:03:35.224Z,86.50
2017-08-25T22:06:03.536Z,86.50
2017-08-25T22:08:32.152Z,86.10
2017-08-25T22:11:00.450Z,85.90
2017-08-25T22:13:28.751Z,87.20
2017-08-25T22:15:57.023Z,87.30
2017-08-25T22:18:25.302Z,87.30
2017-08-25T22:20:53.575Z,86.60
2017-08-25T22:23:21.851Z,85.70
2017-08-25T22:25:50.152Z,86.70
2017-08-25T22:28:19.203Z,87.60
2017-08-25T22:30:48.244Z,87.30
2017-08-25T22:33:16.532Z,87.20
2017-08-25T22:35:44.791Z,86.80
2017-08-25T22:38:13.253Z,87.50
2017-08-25T22:40:41.520Z,89.20
2017-08-25T22:43:09.788Z,88.80
2017-08-25T22:45:38.844Z,89.10
2017-08-25T22:48:07.121Z,89.10
2017-08-25T22:50:35.432Z,89.80
2017-08-25T22:53:03.711Z,90.10
2017-08-25T22:55:32.221Z,88.40
2017-08-25T22:58:00.599Z,86.90
2017-08-25T23:00:28.861Z,88.70
2017-08-25T23:02:57.264Z,89.80
2017-08-25T23:05:26.446Z,88.50
2017-08-25T23:07:54.723Z,87.80
2017-08-25T23:10:22.993Z,88.00
2017-08-25T23:12:51.270Z,87.30
2017-08-25T23:15:19.552Z,86.60
2017-08-25T23:17:48.579Z,87.60
2017-08-25T23:20:16.867Z,87.60
2017-08-25T23:22:45.151Z,87.70
2017-08-25T23:25:13.448Z,88.40
2017-08-25T23:27:41.776Z,88.10
2017-08-25T23:30:10.040Z,88.20
2017-08-25T23:32:38.307Z,88.30
2017-08-25T23:35:06.591Z,88.90
2017-08-25T23:37:35.063Z,89.10
2017-08-25T23:40:03.476Z,88.70
2017-08-25T23:42:31.755Z,88.50
2017-08-25T23:45:00.043Z,89.40
2017-08-25T23:47:28.320Z,89.70
2017-08-25T23:49:56.583Z,90.10
2017-08-25T23:52:24.895Z,90.00
2017-08-25T23:54:53.168Z,89.80
2017-08-25T23:57:21.444Z,89.90
2017-08-25T23:59:49.719Z,89.90
